Time;durP1;ratioP1;P1;durP2;ratioP2;P2;SDS_P1;SDS_P2;PMS_P1;PMS_P2;Temp;Humidity;BMP_temperature;BMP_pressure;BME280_temperature;BME280_humidity;BME280_pressure;Samples;Min_cycle;Max_cycle;Signal;HPM_P1;HPM_P2
2024/04/08 00:00:16;;;;;;;15.80;6.70;;;;;;;11.66;62.96;101255.88;123542;1099;104277;-73
2024/04/08 00:02:52;;;;;;;16.07;7.33;;;;;;;11.70;62.92;101251.64;123123;1099;104324;-72
2024/04/08 00:05:23;;;;;;;17.53;7.23;;;;;;;11.74;63.07;101250.06;123252;1099;104341;-72
2024/04/08 00:07:54;;;;;;;15.57;6.63;;;;;;;11.73;62.96;101254.40;123260;1099;104254;-73
2024/04/08 00:10:24;;;;;;;18.03;7.33;;;;;;;11.65;63.24;101247.92;123510;1099;104281;-72
2024/04/08 00:12:54;;;;;;;15.00;6.80;;;;;;;11.49;63.54;101246.37;123203;1099;104293;-72
2024/04/08 00:15:25;;;;;;;18.17;6.73;;;;;;;11.34;63.38;101243.95;123122;1099;104367;-72
2024/04/08 00:17:55;;;;;;;21.65;6.80;;;;;;;11.23;63.72;101245.20;123101;1099;104501;-72
2024/04/08 00:20:25;;;;;;;17.10;6.83;;;;;;;11.12;63.70;101245.61;123386;1098;105498;-72
2024/04/08 00:22:56;;;;;;;17.63;7.20;;;;;;;11.06;63.59;101254.94;123415;1099;104278;-73
2024/04/08 00:25:26;;;;;;;19.70;7.70;;;;;;;11.01;63.99;101241.60;123607;1099;104270;-72
2024/04/08 00:27:57;;;;;;;16.97;6.50;;;;;;;10.97;63.87;101248.45;123413;1099;104307;-73
2024/04/08 00:30:27;;;;;;;15.50;6.97;;;;;;;10.98;64.22;101251.97;123169;1099;104399;-72
2024/04/08 00:32:57;;;;;;;17.43;7.17;;;;;;;11.03;64.58;101253.09;123417;1099;104344;-73
2024/04/08 00:35:27;;;;;;;16.13;6.10;;;;;;;11.09;64.86;101255.08;123101;1099;104757;-72
2024/04/08 00:37:58;;;;;;;15.77;7.10;;;;;;;11.10;64.53;101249.91;123439;1098;104267;-72
2024/04/08 00:40:37;;;;;;;19.00;7.20;;;;;;;11.09;64.72;101253.34;123363;1099;104301;-73
2024/04/08 00:43:09;;;;;;;20.40;7.17;;;;;;;11.05;64.82;101254.05;123383;1099;104415;-72
2024/04/08 00:45:41;;;;;;;17.73;6.90;;;;;;;10.97;65.19;101247.56;123455;1099;104344;-72
2024/04/08 00:48:12;;;;;;;16.73;7.40;;;;;;;10.95;65.25;101255.38;123432;1099;105010;-72
2024/04/08 00:50:46;;;;;;;18.80;6.93;;;;;;;10.87;65.02;101254.09;123191;1099;104251;-73
2024/04/08 00:53:16;;;;;;;;;;;;;;;10.76;65.62;101253.59;123200;1099;104270;-72
2024/04/08 00:55:49;;;;;;;17.10;6.40;;;;;;;10.70;65.43;101249.78;123121;1099;104316;-72
2024/04/08 00:58:20;;;;;;;18.27;7.03;;;;;;;10.68;65.31;101246.20;123164;1098;104255;-73
2024/04/08 01:00:52;;;;;;;17.37;6.53;;;;;;;10.67;65.61;101244.39;123441;1099;104316;-72
2024/04/08 01:03:22;;;;;;;17.60;6.43;;;;;;;10.71;65.60;101251.59;123412;1099;104223;-73
2024/04/08 01:05:53;;;;;;;15.30;6.13;;;;;;;10.74;65.94;101249.12;123402;1099;104326;-73
2024/04/08 01:08:24;;;;;;;15.93;6.90;;;;;;;10.80;65.51;101249.41;123135;1101;104427;-73
2024/04/08 01:10:57;;;;;;;15.27;6.17;;;;;;;10.84;65.90;101242.56;123167;1099;104803;-73
2024/04/08 01:13:27;;;;;;;17.97;6.83;;;;;;;10.81;65.64;101238.05;123106;1099;104374;-72
2024/04/08 01:16:00;;;;;;;16.77;6.57;;;;;;;10.73;66.15;101242.06;123117;1099;104281;-71
2024/04/08 01:18:30;;;;;;;17.33;6.33;;;;;;;10.63;66.40;101238.11;123166;1099;104756;-72
2024/04/08 01:21:02;;;;;;;17.13;6.97;;;;;;;10.54;66.62;101237.67;123342;1099;104379;-72
2024/04/08 01:23:37;;;;;;;16.93;6.97;;;;;;;10.49;66.64;101244.44;123394;1099;104422;-72
2024/04/08 01:26:08;;;;;;;17.97;7.20;;;;;;;10.47;66.65;101241.73;123381;1099;104265;-73
2024/04/08 01:28:39;;;;;;;17.17;6.90;;;;;;;10.43;66.25;101242.41;123450;1099;104290;-72
2024/04/08 01:31:09;;;;;;;14.75;6.90;;;;;;;10.42;66.49;101235.34;123374;1099;104313;-71
2024/04/08 01:33:40;;;;;;;15.00;6.80;;;;;;;10.45;66.65;101231.98;123475;1099;104297;-72
2024/04/08 01:36:11;;;;;;;15.25;6.60;;;;;;;10.49;66.80;101234.83;123208;1099;104255;-72
2024/04/08 01:38:42;;;;;;;18.67;7.10;;;;;;;10.47;67.09;101244.36;123665;1099;104213;-71
2024/04/08 01:41:12;;;;;;;16.80;7.37;;;;;;;10.40;67.14;101250.13;123598;1099;104341;-71
2024/04/08 01:43:43;;;;;;;18.00;7.43;;;;;;;10.32;67.22;101249.72;123596;1099;104326;-74
2024/04/08 01:46:13;;;;;;;17.97;7.60;;;;;;;10.31;67.27;101245.29;123404;1099;104504;-73
2024/04/08 01:48:43;;;;;;;19.67;7.43;;;;;;;10.30;67.56;101248.76;123443;1099;104242;-73
2024/04/08 01:51:14;;;;;;;18.00;7.90;;;;;;;10.28;67.46;101259.98;123268;1099;104374;-72
2024/04/08 01:53:45;;;;;;;18.57;7.87;;;;;;;10.29;67.42;101254.81;123078;1099;104376;-73
2024/04/08 01:56:15;;;;;;;16.97;8.27;;;;;;;10.22;67.34;101256.25;123210;1099;104292;-72
2024/04/08 01:58:45;;;;;;;20.90;7.87;;;;;;;10.16;67.53;101250.70;123063;1099;104879;-72
2024/04/08 02:01:16;;;;;;;14.03;6.93;;;;;;;10.11;68.40;101253.91;123213;1099;104353;-72
2024/04/08 02:03:46;;;;;;;15.65;6.75;;;;;;;10.00;68.16;101264.78;123532;1099;104711;-72
2024/04/08 02:06:16;;;;;;;16.25;6.50;;;;;;;9.95;67.83;101261.01;123402;1099;104361;-72
2024/04/08 02:08:46;;;;;;;13.67;6.60;;;;;;;9.89;68.09;101265.94;123411;1099;104358;-73
2024/04/08 02:11:17;;;;;;;14.80;6.50;;;;;;;9.87;67.89;101267.59;123338;1099;104367;-73
2024/04/08 02:13:47;;;;;;;16.63;6.73;;;;;;;9.85;68.02;101269.25;123415;1099;104307;-72
2024/04/08 02:16:17;;;;;;;14.63;6.77;;;;;;;9.75;68.97;101261.72;123385;1099;104370;-73
2024/04/08 02:18:52;;;;;;;17.17;6.70;;;;;;;9.63;68.88;101259.36;123413;1099;104236;-73
2024/04/08 02:21:22;;;;;;;14.57;6.33;;;;;;;9.55;69.10;101256.34;123452;1099;104333;-74
2024/04/08 02:23:53;;;;;;;16.10;6.90;;;;;;;9.60;69.14;101267.98;123366;1099;104344;-73
2024/04/08 02:26:24;;;;;;;14.43;6.57;;;;;;;9.66;68.58;101262.14;123427;1099;104720;-72
2024/04/08 02:28:58;;;;;;;16.13;6.60;;;;;;;9.75;69.04;101261.72;123464;1099;104312;-72
2024/04/08 02:31:28;;;;;;;15.78;6.33;;;;;;;9.80;69.54;101263.77;123392;1099;104293;-72
2024/04/08 02:33:59;;;;;;;18.55;7.45;;;;;;;9.85;69.57;101264.89;123402;1099;104287;-73
2024/04/08 02:36:29;;;;;;;19.37;6.90;;;;;;;9.87;69.58;101264.97;123375;1099;104290;-73
2024/04/08 02:39:00;;;;;;;18.37;7.30;;;;;;;9.89;69.03;101266.86;123401;1099;104242;-72
2024/04/08 02:41:31;;;;;;;21.03;7.70;;;;;;;9.92;69.63;101260.85;123399;1099;104290;-72
2024/04/08 02:44:01;;;;;;;18.37;7.17;;;;;;;9.98;69.82;101258.54;123428;1099;104712;-72
2024/04/08 02:46:31;;;;;;;20.57;7.57;;;;;;;10.02;69.44;101265.75;123273;1099;104711;-73
2024/04/08 02:49:02;;;;;;;14.13;6.10;;;;;;;10.03;69.49;101259.66;123352;1098;104363;-73
2024/04/08 02:51:32;;;;;;;19.00;7.40;;;;;;;10.05;69.37;101255.41;123392;1099;104294;-73
2024/04/08 02:54:02;;;;;;;15.83;6.30;;;;;;;10.07;69.84;101252.87;123417;1099;104293;-73
2024/04/08 02:56:35;;;;;;;16.23;6.43;;;;;;;10.07;69.51;101261.63;123306;1099;104319;-73
2024/04/08 02:59:06;;;;;;;17.90;6.67;;;;;;;10.02;69.53;101263.13;123497;1099;104268;-72
2024/04/08 03:01:36;;;;;;;15.90;6.75;;;;;;;9.97;69.85;101264.63;123469;1099;104296;-72
2024/04/08 03:04:07;;;;;;;15.87;6.50;;;;;;;9.94;69.60;101268.80;123263;1099;104348;-73
2024/04/08 03:06:37;;;;;;;16.40;6.43;;;;;;;9.94;69.76;101263.55;123589;1099;104300;-73
2024/04/08 03:09:07;;;;;;;16.93;7.27;;;;;;;9.88;70.35;101269.41;123413;1099;104239;-71
2024/04/08 03:11:37;;;;;;;18.80;7.97;;;;;;;9.88;69.92;101274.65;123401;1099;104489;-72
2024/04/08 03:14:08;;;;;;;16.03;7.27;;;;;;;9.90;70.53;101278.23;123328;1098;107080;-73
2024/04/08 03:16:39;;;;;;;17.47;8.13;;;;;;;9.90;70.09;101281.75;123400;1099;104238;-73
2024/04/08 03:19:09;;;;;;;15.93;7.70;;;;;;;9.90;69.86;101280.86;123389;1099;104341;-73
2024/04/08 03:21:39;;;;;;;17.30;7.63;;;;;;;9.93;69.93;101278.39;123435;1099;104235;-72
2024/04/08 03:24:10;;;;;;;17.73;8.77;;;;;;;9.96;70.08;101286.41;123449;1099;118651;-72
2024/04/08 03:26:40;;;;;;;16.25;8.80;;;;;;;9.98;70.20;101282.14;123294;1099;104424;-73
2024/04/08 03:29:10;;;;;;;21.97;8.93;;;;;;;10.01;70.78;101284.91;123397;1098;104194;-73
2024/04/08 03:31:41;;;;;;;27.67;12.13;;;;;;;9.96;70.06;101294.28;123404;1099;104354;-72
2024/04/08 03:34:11;;;;;;;24.10;11.90;;;;;;;9.88;70.83;101293.00;123170;1099;104270;-72
2024/04/08 03:36:41;;;;;;;22.77;12.13;;;;;;;9.81;70.78;101299.62;123388;1099;104371;-72
2024/04/08 03:39:11;;;;;;;22.37;12.00;;;;;;;9.80;71.00;101294.30;123086;1099;104399;-72
2024/04/08 03:41:42;;;;;;;24.53;10.57;;;;;;;9.83;70.52;101300.63;123409;1099;104255;-73
2024/04/08 03:44:12;;;;;;;17.10;7.35;;;;;;;9.79;71.13;101306.52;123416;1099;104272;-72
2024/04/08 03:46:42;;;;;;;18.53;6.83;;;;;;;9.66;71.01;101297.13;123478;1099;104312;-73
2024/04/08 03:49:12;;;;;;;17.60;7.27;;;;;;;9.58;70.67;101305.40;123464;1099;104392;-72
2024/04/08 03:51:43;;;;;;;14.20;6.43;;;;;;;9.62;70.44;101304.75;123605;1099;104226;-73
2024/04/08 03:54:13;;;;;;;18.40;6.57;;;;;;;9.67;71.25;101311.13;123373;1099;105708;-73
2024/04/08 03:56:43;;;;;;;15.87;6.67;;;;;;;9.78;71.11;101303.81;123120;1099;104240;-73
2024/04/08 03:59:13;;;;;;;21.43;7.37;;;;;;;9.84;71.18;101309.38;123725;1099;104271;-73
2024/04/08 04:01:44;;;;;;;19.47;6.53;;;;;;;9.87;71.34;101304.30;123354;1099;104405;-72
2024/04/08 04:04:14;;;;;;;16.15;6.25;;;;;;;9.85;71.52;101304.22;123338;1099;104389;-72
2024/04/08 04:06:44;;;;;;;16.40;6.40;;;;;;;9.81;71.60;101309.22;123402;1099;104261;-73
2024/04/08 04:09:14;;;;;;;18.30;7.30;;;;;;;9.73;71.76;101310.55;123484;1099;104262;-73
2024/04/08 04:11:45;;;;;;;15.83;6.80;;;;;;;9.63;71.56;101317.93;123407;1099;104239;-73
2024/04/08 04:14:15;;;;;;;20.90;6.95;;;;;;;9.63;71.76;101314.39;123374;1099;104353;-72
2024/04/08 04:16:47;;;;;;;13.60;6.50;;;;;;;9.67;71.91;101306.77;123291;1099;104357;-72
2024/04/08 04:19:17;;;;;;;18.20;6.90;;;;;;;9.70;71.37;101308.66;123156;1099;104309;-73
2024/04/08 04:21:48;;;;;;;14.75;6.90;;;;;;;9.72;72.04;101309.62;123087;1099;104271;-73
2024/04/08 04:24:18;;;;;;;16.23;6.70;;;;;;;9.71;72.16;101303.50;123449;1099;104172;-72
2024/04/08 04:26:48;;;;;;;14.77;6.70;;;;;;;9.71;71.83;101311.36;123375;1099;104836;-72
2024/04/08 04:29:18;;;;;;;15.13;6.87;;;;;;;9.75;71.98;101307.17;123660;1099;104370;-72
2024/04/08 04:31:48;;;;;;;14.50;6.70;;;;;;;9.77;72.71;101315.11;123555;1099;104348;-72
2024/04/08 04:34:19;;;;;;;15.10;6.53;;;;;;;9.80;72.83;101310.95;123288;1099;104277;-73
2024/04/08 04:36:49;;;;;;;14.53;6.40;;;;;;;9.89;72.92;101313.12;123434;1099;104215;-72
2024/04/08 04:39:19;;;;;;;15.70;6.33;;;;;;;9.94;72.59;101311.66;123492;1098;104368;-73
2024/04/08 04:41:53;;;;;;;16.17;7.10;;;;;;;10.04;72.70;101310.40;123477;1099;104389;-72
2024/04/08 04:44:24;;;;;;;14.17;7.07;;;;;;;10.14;72.62;101303.89;123494;1099;104268;-73
2024/04/08 04:46:55;;;;;;;14.40;6.83;;;;;;;10.29;73.16;101306.39;123376;1099;104317;-73
2024/04/08 04:49:25;;;;;;;18.95;7.45;;;;;;;10.41;72.52;101305.30;123526;1099;104267;-72
2024/04/08 04:51:55;;;;;;;17.60;6.97;;;;;;;10.54;73.36;101306.80;123740;1099;104261;-73
2024/04/08 04:54:26;;;;;;;14.63;6.90;;;;;;;10.68;73.26;101301.32;123756;1099;104331;-73
2024/04/08 04:56:56;;;;;;;18.20;7.03;;;;;;;10.82;73.22;101300.25;123843;1099;104325;-73
2024/04/08 04:59:26;;;;;;;18.40;7.53;;;;;;;10.96;73.21;101293.91;123586;1099;104274;-73
2024/04/08 05:01:57;;;;;;;19.03;7.67;;;;;;;11.10;73.22;101294.55;123730;1098;104242;-73
2024/04/08 05:04:27;;;;;;;20.37;7.83;;;;;;;11.23;73.15;101296.01;123725;1099;104246;-73
2024/04/08 05:06:57;;;;;;;21.37;8.17;;;;;;;11.33;73.17;101298.23;123681;1099;104386;-72
2024/04/08 05:09:27;;;;;;;19.73;8.27;;;;;;;11.46;73.29;101298.80;123544;1099;104386;-73
2024/04/08 05:11:58;;;;;;;21.97;8.57;;;;;;;11.57;73.22;101294.91;123782;1099;104219;-72
2024/04/08 05:14:28;;;;;;;24.23;8.87;;;;;;;11.70;73.54;101293.70;123644;1099;104268;-73
2024/04/08 05:17:00;;;;;;;22.17;8.50;;;;;;;11.85;73.19;101288.23;123592;1099;104270;-74
2024/04/08 05:19:30;;;;;;;21.40;9.60;;;;;;;11.97;73.23;101277.37;123582;1099;104354;-73
2024/04/08 05:22:02;;;;;;;23.43;9.70;;;;;;;12.10;73.38;101287.56;124027;1099;104304;-71
2024/04/08 05:24:32;;;;;;;21.87;10.07;;;;;;;12.22;73.22;101280.19;123537;1099;106594;-71
2024/04/08 05:27:03;;;;;;;22.87;10.50;;;;;;;12.37;73.26;101286.91;123969;1098;104195;-71
2024/04/08 05:29:34;;;;;;;24.80;10.67;;;;;;;12.50;73.19;101276.05;124127;1099;104317;-72
2024/04/08 05:32:08;;;;;;;23.65;10.10;;;;;;;12.65;73.20;101274.86;123944;1099;104373;-73
2024/04/08 05:34:40;;;;;;;24.52;10.35;;;;;;;12.82;73.52;101276.41;123957;1099;104360;-73
2024/04/08 05:37:10;;;;;;;26.00;9.90;;;;;;;12.94;73.05;101274.25;124057;1099;104268;-72
2024/04/08 05:39:41;;;;;;;23.10;10.40;;;;;;;13.05;72.61;101276.41;124244;1099;104226;-72
2024/04/08 05:42:12;;;;;;;22.23;10.70;;;;;;;13.11;72.84;101271.37;124104;1099;104545;-72
2024/04/08 05:44:51;;;;;;;24.73;10.80;;;;;;;13.22;72.49;101274.41;124238;1099;104245;-73
2024/04/08 05:47:22;;;;;;;23.37;10.60;;;;;;;13.34;73.04;101273.98;123946;1099;104432;-70
2024/04/08 05:49:57;;;;;;;26.60;11.10;;;;;;;13.46;72.50;101283.27;124375;1099;102253;-72
2024/04/08 05:52:33;;;;;;;23.73;11.13;;;;;;;13.60;72.78;101286.41;124340;1099;102252;-71
2024/04/08 05:55:05;;;;;;;26.93;10.53;;;;;;;13.71;72.71;101293.78;126050;1098;104254;-73
2024/04/08 05:57:37;;;;;;;24.15;10.30;;;;;;;13.82;72.31;101289.77;123842;1099;108481;-71
2024/04/08 06:00:10;;;;;;;26.97;10.60;;;;;;;13.92;71.33;101302.45;124146;1099;104229;-71
2024/04/08 06:02:40;;;;;;;23.30;11.43;;;;;;;13.97;71.60;101308.78;126266;1098;103027;-73
2024/04/08 06:05:11;;;;;;;22.47;10.93;;;;;;;14.02;71.09;101298.38;124347;1099;104242;-73
2024/04/08 06:07:53;;;;;;;24.43;11.50;;;;;;;14.06;71.47;101304.69;124483;1099;104249;-72
2024/04/08 06:10:30;;;;;;;30.50;11.45;;;;;;;14.09;71.34;101305.67;124340;1099;104360;-73
2024/04/08 06:13:01;;;;;;;22.00;10.70;;;;;;;14.11;71.74;101303.97;124285;1099;104239;-73
2024/04/08 06:15:32;;;;;;;23.03;10.83;;;;;;;14.18;70.70;101302.47;124098;1099;104198;-73
2024/04/08 06:18:03;;;;;;;25.70;11.73;;;;;;;14.25;70.59;101300.92;123980;1099;103436;-72
2024/04/08 06:20:33;;;;;;;23.20;12.13;;;;;;;14.34;71.07;101303.86;123920;1099;104198;-74
2024/04/08 06:23:04;;;;;;;24.00;11.40;;;;;;;14.45;70.81;101304.22;124015;1099;104353;-74
2024/04/08 06:25:35;;;;;;;23.40;10.27;;;;;;;14.55;71.49;101301.02;123894;1099;102829;-72
2024/04/08 06:28:05;;;;;;;28.77;11.13;;;;;;;14.70;71.81;101300.66;123853;1099;110769;-71
2024/04/08 06:30:36;;;;;;;25.63;11.03;;;;;;;14.87;71.31;101293.25;123864;1098;104172;-75
2024/04/08 06:33:12;;;;;;;25.87;11.70;;;;;;;15.04;71.51;101297.30;123830;1099;104316;-71
2024/04/08 06:35:45;;;;;;;25.83;10.63;;;;;;;15.24;71.67;101299.66;123924;1099;104220;-74
2024/04/08 06:38:16;;;;;;;25.37;10.70;;;;;;;15.41;71.27;101305.41;124302;1099;104273;-73
2024/04/08 06:40:48;;;;;;;22.67;11.27;;;;;;;15.58;70.74;101305.89;124229;1099;104262;-72
2024/04/08 06:43:18;;;;;;;21.90;10.57;;;;;;;15.79;70.56;101306.52;124070;1098;104249;-71
2024/04/08 06:45:58;;;;;;;23.73;10.53;;;;;;;16.01;71.13;101300.91;124251;1099;104251;-73
2024/04/08 06:48:28;;;;;;;24.37;10.43;;;;;;;16.15;70.88;101302.16;124082;1099;104242;-71
2024/04/08 06:50:59;;;;;;;22.40;10.70;;;;;;;16.27;70.68;101299.83;124018;1099;104450;-72
2024/04/08 06:53:29;;;;;;;23.47;9.93;;;;;;;16.46;70.31;101306.47;124112;1099;104242;-72
2024/04/08 06:56:00;;;;;;;21.87;10.10;;;;;;;16.66;70.14;101293.70;124433;1099;104267;-71
2024/04/08 06:58:33;;;;;;;21.97;9.25;;;;;;;16.85;69.92;101297.66;124369;1099;104248;-72
2024/04/08 07:01:03;;;;;;;19.33;9.43;;;;;;;17.05;70.13;101289.30;124273;1099;104417;-71
2024/04/08 07:03:34;;;;;;;16.47;7.50;;;;;;;17.21;69.80;101293.17;124388;1099;104248;-73
2024/04/08 07:06:09;;;;;;;17.90;8.03;;;;;;;17.36;68.87;101292.61;124259;1099;104242;-71
2024/04/08 07:11:31;;;;;;;22.10;7.93;;;;;;;17.71;68.87;101293.28;124098;1098;104287;-72
2024/04/08 07:14:02;;;;;;;18.52;8.03;;;;;;;17.98;68.91;101296.45;124299;1099;104256;-71
2024/04/08 07:16:32;;;;;;;20.33;8.00;;;;;;;18.15;68.87;101292.33;124481;1099;103218;-72
2024/04/08 07:19:03;;;;;;;20.70;7.50;;;;;;;18.31;68.36;101298.81;124266;1099;104172;-73
2024/04/08 07:21:53;;;;;;;19.60;7.67;;;;;;;18.45;68.39;101297.27;124164;1099;104274;-73
2024/04/08 07:24:30;;;;;;;17.80;7.23;;;;;;;18.60;68.04;101295.72;126798;1099;102492;-72
2024/04/08 07:27:05;;;;;;;20.23;7.50;;;;;;;18.76;67.54;101302.15;124315;1099;104223;-72
2024/04/08 07:29:37;;;;;;;22.70;8.60;;;;;;;18.96;67.09;101303.36;123805;1099;104259;-73
2024/04/08 07:32:08;;;;;;;18.50;7.23;;;;;;;19.10;66.55;101297.34;123890;1099;104348;-71
2024/04/08 07:34:39;;;;;;;16.57;7.63;;;;;;;19.13;65.84;101297.39;124464;1099;104229;-71
2024/04/08 07:37:09;;;;;;;16.70;7.50;;;;;;;19.26;66.49;101288.70;124359;1099;104165;-71
2024/04/08 07:39:46;;;;;;;15.43;6.47;;;;;;;19.40;66.15;101284.44;123756;1099;108100;-73
2024/04/08 07:42:17;;;;;;;16.10;6.30;;;;;;;19.49;65.13;101288.95;123859;1099;104267;-72
2024/04/08 07:45:01;;;;;;;14.03;5.33;;;;;;;19.63;64.96;101280.24;123938;1099;104268;-73
2024/04/08 07:47:40;;;;;;;11.10;4.40;;;;;;;19.85;64.56;101268.07;124170;1099;104242;-72
2024/04/08 07:50:13;;;;;;;12.90;5.67;;;;;;;19.97;64.67;101273.52;123723;1099;118229;-73
2024/04/08 07:52:58;;;;;;;13.77;5.67;;;;;;;20.04;65.00;101270.04;124101;1099;104169;-72
2024/04/08 07:55:29;;;;;;;11.63;5.20;;;;;;;20.29;64.20;101276.47;126588;1099;102402;-73
2024/04/08 07:58:00;;;;;;;13.97;4.87;;;;;;;20.40;64.31;101268.55;124123;1099;104308;-72
2024/04/08 08:00:32;;;;;;;13.67;5.03;;;;;;;20.48;62.96;101261.49;124316;1099;104268;-72
2024/04/08 08:03:05;;;;;;;8.10;3.00;;;;;;;20.69;62.52;101264.33;124054;1099;104198;-72
2024/04/08 08:05:36;;;;;;;3.27;2.00;;;;;;;20.86;62.12;101264.43;124055;1099;104325;-72
2024/04/08 08:08:09;;;;;;;3.57;2.00;;;;;;;20.97;62.15;101260.03;124229;1099;104322;-72
2024/04/08 08:10:40;;;;;;;4.20;2.05;;;;;;;21.10;60.95;101255.64;124098;1099;111453;-72
2024/04/08 08:13:10;;;;;;;3.37;2.00;;;;;;;21.19;60.45;101256.59;124137;1099;104274;-73
2024/04/08 08:15:43;;;;;;;3.67;1.80;;;;;;;21.36;60.00;101250.40;124171;1099;102051;-74
2024/04/08 08:18:16;;;;;;;6.77;2.50;;;;;;;21.51;59.59;101258.49;124289;1099;104354;-71
2024/04/08 08:20:46;;;;;;;2.22;1.85;;;;;;;21.69;58.36;101256.74;124223;1099;104274;-72
2024/04/08 08:23:16;;;;;;;2.77;2.13;;;;;;;21.80;57.91;101249.66;124007;1099;104233;-71
2024/04/08 08:25:48;;;;;;;2.97;1.90;;;;;;;21.81;56.67;101245.20;124189;1099;104223;-72
2024/04/08 08:28:20;;;;;;;2.80;2.10;;;;;;;21.86;57.93;101255.02;123989;1098;104229;-73
2024/04/08 08:30:56;;;;;;;3.40;1.87;;;;;;;21.88;56.14;101255.02;124402;1099;104270;-74
2024/04/08 08:33:30;;;;;;;4.50;1.90;;;;;;;21.82;56.19;101249.66;124359;1099;104245;-73
2024/04/08 08:36:03;;;;;;;3.45;1.60;;;;;;;21.85;55.53;101247.00;124160;1098;104788;-72
2024/04/08 08:38:34;;;;;;;4.27;1.83;;;;;;;21.97;54.59;101246.09;124123;1099;102745;-72
2024/04/08 08:41:09;;;;;;;5.67;1.73;;;;;;;22.00;54.09;101240.75;124138;1099;104221;-72
2024/04/08 08:43:40;;;;;;;4.20;1.97;;;;;;;22.00;54.57;101238.99;125628;1098;102404;-73
2024/04/08 08:46:22;;;;;;;7.03;2.10;;;;;;;22.13;54.87;101234.53;124120;1099;102162;-72
2024/04/08 08:48:56;;;;;;;2.00;1.67;;;;;;;22.17;54.57;101228.27;124318;1099;104227;-73
2024/04/08 08:51:27;;;;;;;3.40;2.07;;;;;;;22.17;54.39;101220.25;124094;1098;103414;-72
2024/04/08 08:53:58;;;;;;;3.07;2.20;;;;;;;22.18;53.42;101224.72;124070;1099;104172;-72
2024/04/08 08:56:31;;;;;;;4.30;2.00;;;;;;;22.17;53.51;101220.25;124034;1099;104431;-71
2024/04/08 08:59:03;;;;;;;2.20;1.70;;;;;;;22.22;52.91;101217.58;124191;1099;104258;-73
2024/04/08 09:01:35;;;;;;;4.50;2.23;;;;;;;22.32;52.93;101223.86;124296;1099;104325;-73
2024/04/08 09:04:08;;;;;;;3.03;1.90;;;;;;;22.54;52.75;101220.23;124179;1099;104243;-73
2024/04/08 09:06:41;;;;;;;4.75;1.85;;;;;;;22.70;51.56;101222.88;123976;1100;104274;-72
2024/04/08 09:09:13;;;;;;;3.80;1.70;;;;;;;22.68;51.15;101216.65;124349;1099;104274;-73
2024/04/08 09:11:49;;;;;;;3.77;1.87;;;;;;;22.72;51.40;101215.72;124351;1099;104270;-72
2024/04/08 09:14:30;;;;;;;4.67;1.80;;;;;;;22.73;49.91;101214.84;124250;1099;104223;-72
2024/04/08 09:17:13;;;;;;;3.37;1.97;;;;;;;22.81;50.42;101213.02;123941;1099;104175;-72
2024/04/08 09:19:43;;;;;;;2.83;1.77;;;;;;;22.83;49.63;101210.34;123935;1099;103933;-73
2024/04/08 09:22:14;;;;;;;4.00;1.80;;;;;;;22.88;49.42;101203.20;123930;1099;104223;-71
2024/04/08 09:24:45;;;;;;;3.93;1.63;;;;;;;22.92;48.97;101197.84;124628;1099;104242;-73
2024/04/08 09:27:15;;;;;;;4.40;1.37;;;;;;;22.94;48.57;101196.03;124594;1099;104185;-72
2024/04/08 09:29:45;;;;;;;2.20;1.87;;;;;;;23.02;48.82;101196.00;124662;1099;104217;-73
2024/04/08 09:32:17;;;;;;;2.57;1.80;;;;;;;23.05;48.33;101200.46;124765;1099;118964;-73
2024/04/08 09:34:52;;;;;;;2.85;1.45;;;;;;;22.96;48.05;101199.58;124545;1099;104265;-74
2024/04/08 09:37:26;;;;;;;2.20;1.50;;;;;;;22.88;47.02;101189.83;124648;1099;104243;-73
2024/04/08 09:39:55;;;;;;;;;;;;;;;22.77;47.18;101188.07;124333;1099;104258;-72
2024/04/08 09:42:32;;;;;;;2.07;1.83;;;;;;;22.82;47.67;101177.35;124257;1099;101988;-74
2024/04/08 09:45:06;;;;;;;2.30;1.70;;;;;;;22.86;47.59;101176.45;124248;1099;104339;-74
2024/04/08 09:47:40;;;;;;;1.63;1.43;;;;;;;22.96;46.57;101175.50;124490;1099;102090;-76
2024/04/08 09:50:17;;;;;;;3.30;1.80;;;;;;;23.10;46.81;101178.14;124760;1098;104268;-72
2024/04/08 09:52:48;;;;;;;1.50;1.40;;;;;;;23.17;46.64;101176.34;123705;1102;111482;-72
2024/04/08 09:55:21;;;;;;;4.30;1.70;;;;;;;23.11;46.26;101163.88;123830;1102;104646;-71
2024/04/08 09:57:58;;;;;;;3.83;1.42;;;;;;;23.01;46.28;101163.89;124056;1099;104216;-73
2024/04/08 10:00:35;;;;;;;3.57;1.90;;;;;;;22.95;46.16;101163.03;124068;1099;104325;-73
2024/04/08 10:03:10;;;;;;;1.93;1.70;;;;;;;23.03;46.39;101160.32;124266;1099;102403;-73
2024/04/08 10:05:45;;;;;;;4.70;1.80;;;;;;;23.03;45.43;101154.97;123988;1099;103176;-74
2024/04/08 10:08:16;;;;;;;2.27;1.50;;;;;;;23.04;45.44;101158.52;124443;1099;102075;-73
2024/04/08 10:10:46;;;;;;;1.60;1.50;;;;;;;23.04;45.26;101155.84;124139;1099;104176;-73
2024/04/08 10:13:18;;;;;;;3.43;1.30;;;;;;;23.13;45.03;101164.73;124524;1098;104185;-73
2024/04/08 10:15:52;;;;;;;2.37;1.70;;;;;;;23.19;43.40;101158.47;124373;1099;104239;-72
2024/04/08 10:18:23;;;;;;;2.93;1.37;;;;;;;23.27;43.88;101151.27;126752;1099;102167;-73
2024/04/08 10:20:54;;;;;;;2.57;1.47;;;;;;;23.31;44.13;101150.37;126617;1099;101802;-72
2024/04/08 10:23:39;;;;;;;8.38;2.05;;;;;;;23.35;44.34;101143.19;123891;1099;104204;-73
2024/04/08 10:26:15;;;;;;;5.10;1.90;;;;;;;23.40;44.06;101137.80;124038;1099;104251;-73
2024/04/08 10:28:47;;;;;;;1.77;1.50;;;;;;;23.39;43.98;101136.92;123903;1099;104304;-73
2024/04/08 10:31:29;;;;;;;2.00;1.37;;;;;;;23.41;43.91;101134.23;123899;1099;104194;-74
2024/04/08 10:34:00;;;;;;;3.43;1.40;;;;;;;23.42;43.38;101131.55;124314;1099;104163;-71
2024/04/08 10:36:32;;;;;;;1.93;1.40;;;;;;;23.48;43.28;101115.44;124305;1099;104326;-72
2024/04/08 10:39:09;;;;;;;2.37;1.50;;;;;;;23.49;42.85;101117.19;124290;1099;104808;-72
2024/04/08 10:41:40;;;;;;;3.27;1.43;;;;;;;23.54;42.64;101117.16;124126;1098;104233;-72
2024/04/08 10:44:13;;;;;;;3.67;1.63;;;;;;;23.54;43.23;101117.16;124056;1099;104198;-73
2024/04/08 10:46:43;;;;;;;2.85;1.40;;;;;;;23.54;42.77;101106.44;126286;1098;101896;-73
2024/04/08 10:49:13;;;;;;;2.73;1.30;;;;;;;23.58;42.62;101110.88;126242;1098;102033;-72
2024/04/08 10:51:48;;;;;;;4.93;1.83;;;;;;;23.63;42.18;101106.36;126126;1099;101927;-73
2024/04/08 10:54:18;;;;;;;3.07;1.53;;;;;;;23.71;41.72;101110.78;124226;1099;104245;-72
2024/04/08 10:56:51;;;;;;;3.20;1.73;;;;;;;23.73;41.92;101112.52;124269;1099;104226;-74
2024/04/08 10:59:22;;;;;;;4.97;2.05;;;;;;;23.74;42.11;101108.07;124462;1098;104241;-72
2024/04/08 11:01:54;;;;;;;4.37;1.70;;;;;;;23.75;41.75;101104.47;124789;1099;101992;-75
2024/04/08 11:04:29;;;;;;;1.60;1.40;;;;;;;23.65;41.28;101100.99;124027;1099;104355;-74
2024/04/08 11:07:20;;;;;;;2.53;1.80;;;;;;;23.60;41.29;101094.80;123919;1099;104328;-71
2024/04/08 11:09:53;;;;;;;4.67;1.80;;;;;;;23.56;41.37;101085.91;123947;1099;104230;-72
2024/04/08 11:12:23;;;;;;;4.60;2.20;;;;;;;23.58;41.79;101086.77;123921;1099;104245;-73
2024/04/08 11:14:53;;;;;;;4.63;2.20;;;;;;;23.65;41.10;101093.86;124151;1099;104271;-73
2024/04/08 11:17:25;;;;;;;1.60;1.50;;;;;;;23.69;41.25;101084.00;124506;1099;104345;-72
2024/04/08 11:19:59;;;;;;;3.33;1.70;;;;;;;23.70;41.03;101075.07;124440;1099;102238;-73
2024/04/08 11:22:30;;;;;;;8.47;2.10;;;;;;;23.70;40.71;101075.07;124025;1099;102680;-72
2024/04/08 11:25:05;;;;;;;3.10;1.67;;;;;;;23.69;40.58;101084.87;124361;1099;104259;-74
2024/04/08 11:27:38;;;;;;;4.97;1.53;;;;;;;23.65;39.81;101077.79;124285;1098;104284;-73